createdAt,value
2018-03-27T00:00:35.769Z,100066.76
2018-03-27T00:03:06.627Z,100068.37
2018-03-27T00:05:37.672Z,100075.71
2018-03-27T00:08:08.661Z,100074.17
2018-03-27T00:10:39.346Z,100080.44
2018-03-27T00:13:10.050Z,100075.98
2018-03-27T00:15:40.851Z,100084.00
2018-03-27T00:18:11.646Z,100055.95
2018-03-27T00:20:42.691Z,100088.05
2018-03-27T00:23:13.732Z,100086.97
2018-03-27T00:25:44.783Z,100079.34
2018-03-27T00:28:26.546Z,100092.64
2018-03-27T00:31:07.136Z,100093.19
2018-03-27T00:33:46.891Z,100080.98
2018-03-27T00:36:26.715Z,100090.45
2018-03-27T00:39:06.435Z,100091.00
2018-03-27T00:44:49.776Z,100088.69
2018-03-27T00:47:18.829Z,100090.16
2018-03-27T00:49:47.775Z,100099.30
2018-03-27T00:52:16.722Z,100091.30
2018-03-27T00:54:45.725Z,100092.96
2018-03-27T00:57:14.683Z,100094.45
2018-03-27T00:59:43.711Z,100085.83
2018-03-27T01:02:12.824Z,100094.22
2018-03-27T01:04:41.780Z,100089.17
2018-03-27T01:07:10.731Z,100085.98
2018-03-27T01:09:39.724Z,100089.94
2018-03-27T01:12:08.701Z,100093.43
2018-03-27T01:14:37.696Z,100091.30
2018-03-27T01:17:06.707Z,100091.66
2018-03-27T01:19:35.723Z,100095.13
2018-03-27T01:22:04.104Z,100089.55
2018-03-27T01:24:33.438Z,100083.25
2018-03-27T01:27:02.684Z,100086.75
2018-03-27T01:29:31.625Z,100087.59
2018-03-27T01:32:00.948Z,100097.44
2018-03-27T01:34:29.894Z,100093.91
2018-03-27T01:36:58.882Z,100090.48
2018-03-27T01:39:27.928Z,100090.45
2018-03-27T01:41:56.864Z,100093.80
2018-03-27T01:44:25.813Z,100098.69
2018-03-27T01:46:54.814Z,100097.38
2018-03-27T01:49:23.764Z,100096.40
2018-03-27T01:51:52.732Z,100093.97
2018-03-27T01:54:22.083Z,100093.22
2018-03-27T01:56:51.055Z,100091.94
2018-03-27T01:59:20.015Z,100090.13
2018-03-27T02:01:49.281Z,100089.91
2018-03-27T02:04:18.562Z,100070.21
2018-03-27T02:06:47.527Z,100086.66
2018-03-27T02:09:16.636Z,100079.19
2018-03-27T02:11:50.801Z,100087.28
2018-03-27T02:14:25.192Z,100085.14
2018-03-27T02:16:59.662Z,100083.06
2018-03-27T02:19:34.088Z,100078.69
2018-03-27T02:22:02.222Z,100076.66
2018-03-27T02:24:35.390Z,100083.17
2018-03-27T02:27:04.561Z,100079.94
2018-03-27T02:29:33.611Z,100070.59
2018-03-27T02:32:02.637Z,100073.71
2018-03-27T02:34:31.586Z,100076.08
2018-03-27T02:37:00.611Z,100075.09
2018-03-27T02:39:29.695Z,100077.61
2018-03-27T02:41:58.653Z,100072.27
2018-03-27T02:44:27.623Z,100073.78
2018-03-27T02:46:56.880Z,100077.48
2018-03-27T02:49:25.851Z,100081.13
2018-03-27T02:51:54.807Z,100080.23
2018-03-27T02:54:24.364Z,100083.97
2018-03-27T02:56:53.559Z,100086.84
2018-03-27T02:59:22.906Z,100087.75
2018-03-27T03:01:52.152Z,100084.33
2018-03-27T03:04:21.447Z,100082.42
2018-03-27T03:06:50.784Z,100087.29
2018-03-27T03:09:20.093Z,100093.58
2018-03-27T03:11:49.352Z,100093.49
2018-03-27T03:14:18.467Z,100091.41
2018-03-27T03:16:47.752Z,100096.43
2018-03-27T03:19:18.426Z,100101.66
2018-03-27T03:21:49.220Z,100106.69
2018-03-27T03:24:19.781Z,100098.77
2018-03-27T03:26:50.476Z,100107.40
2018-03-27T03:29:21.127Z,100103.06
2018-03-27T03:31:51.810Z,100100.41
2018-03-27T03:34:22.300Z,100108.33
2018-03-27T03:36:53.081Z,100107.38
2018-03-27T03:39:23.694Z,100108.93
2018-03-27T03:41:54.723Z,100104.87
2018-03-27T03:44:25.705Z,100108.22
2018-03-27T03:46:56.824Z,100096.48
2018-03-27T03:49:27.736Z,100094.23
2018-03-27T03:51:58.477Z,100098.18
2018-03-27T03:54:29.081Z,100098.74
2018-03-27T03:56:59.825Z,100097.87
2018-03-27T03:59:30.765Z,100098.14
2018-03-27T04:02:01.868Z,100100.94
2018-03-27T04:04:32.942Z,100098.19
2018-03-27T04:07:03.796Z,100103.06
2018-03-27T04:09:34.712Z,100100.88
2018-03-27T04:12:05.732Z,100106.84
2018-03-27T04:14:36.343Z,100114.58
2018-03-27T04:17:07.120Z,100111.95
2018-03-27T04:19:37.099Z,100113.45
2018-03-27T04:22:07.723Z,100115.92
2018-03-27T04:24:38.715Z,100117.83
2018-03-27T04:27:09.824Z,100116.59
2018-03-27T04:29:40.358Z,100119.65
2018-03-27T04:32:11.078Z,100113.98
2018-03-27T04:34:41.723Z,100124.97
2018-03-27T04:37:12.796Z,100118.55
2018-03-27T04:39:43.699Z,100121.69
2018-03-27T04:42:14.758Z,100122.99
2018-03-27T04:44:45.756Z,100129.67
2018-03-27T04:47:16.624Z,100136.08
2018-03-27T04:49:47.617Z,100138.15
2018-03-27T04:52:21.007Z,100128.80
2018-03-27T04:54:50.363Z,100134.98
2018-03-27T04:57:21.158Z,100137.62
2018-03-27T04:59:51.827Z,100137.70
2018-03-27T05:02:22.850Z,100137.98
2018-03-27T05:04:53.695Z,100136.69
2018-03-27T05:07:24.777Z,100132.89
2018-03-27T05:09:55.661Z,100135.51
2018-03-27T05:12:26.739Z,100140.41
2018-03-27T05:14:57.671Z,100144.19
2018-03-27T05:17:29.052Z,100143.23
2018-03-27T05:20:00.286Z,100139.25
2018-03-27T05:22:30.074Z,100137.18
2018-03-27T05:25:00.800Z,100148.63
2018-03-27T05:27:31.752Z,100147.45
2018-03-27T05:30:02.648Z,100144.09
2018-03-27T05:32:33.343Z,100153.84
2018-03-27T05:35:04.046Z,100152.39
2018-03-27T05:37:34.857Z,100156.53
2018-03-27T05:40:05.670Z,100154.70
2018-03-27T05:42:36.728Z,100159.42
2018-03-27T05:45:07.753Z,100163.92
2018-03-27T05:47:38.706Z,100160.94
2018-03-27T05:50:09.691Z,100166.32
2018-03-27T05:52:40.753Z,100167.38
2018-03-27T05:55:12.050Z,100167.80
2018-03-27T05:57:43.661Z,100174.02
2018-03-27T06:00:14.492Z,100173.08
2018-03-27T06:02:45.436Z,100181.67
2018-03-27T06:05:16.118Z,100183.09
2018-03-27T06:07:46.841Z,100187.06
2018-03-27T06:10:18.082Z,100174.86
2018-03-27T06:12:48.758Z,100181.42
2018-03-27T06:15:19.667Z,100185.98
2018-03-27T06:17:50.745Z,100176.91
2018-03-27T06:20:21.685Z,100185.44
2018-03-27T06:22:52.859Z,100188.12
2018-03-27T06:25:23.745Z,100191.14
2018-03-27T06:27:54.816Z,100185.91
2018-03-27T06:30:25.620Z,100190.14
2018-03-27T06:32:56.370Z,100185.06
2018-03-27T06:35:27.052Z,100201.92
2018-03-27T06:37:57.881Z,100197.84
2018-03-27T06:40:28.695Z,100196.75
2018-03-27T06:42:59.754Z,100187.83
2018-03-27T06:45:30.687Z,100186.88
2018-03-27T06:48:01.733Z,100189.08
2018-03-27T06:50:32.731Z,100186.52
2018-03-27T06:53:03.435Z,100195.20
2018-03-27T06:55:38.548Z,100199.83
2018-03-27T06:58:08.884Z,100199.40
2018-03-27T07:00:38.156Z,100194.25
2018-03-27T07:03:07.489Z,100196.27
2018-03-27T07:05:38.336Z,100202.02
2018-03-27T07:08:09.122Z,100190.91
2018-03-27T07:10:40.367Z,100204.48
2018-03-27T07:13:11.701Z,100202.32
2018-03-27T07:15:42.467Z,100205.31
2018-03-27T07:18:13.150Z,100202.53
2018-03-27T07:20:43.893Z,100211.33
2018-03-27T07:23:14.683Z,100212.17
2018-03-27T07:25:45.741Z,100217.45
2018-03-27T07:28:16.685Z,100215.92
2018-03-27T07:30:47.738Z,100218.99
2018-03-27T07:33:18.451Z,100213.81
2018-03-27T07:35:49.391Z,100215.94
2018-03-27T07:38:20.074Z,100222.05
2018-03-27T07:40:50.870Z,100217.62
2018-03-27T07:43:21.730Z,100219.27
2018-03-27T07:45:52.710Z,100225.03
2018-03-27T07:48:23.698Z,100228.80
2018-03-27T07:50:53.814Z,100226.42
2018-03-27T07:53:24.767Z,100222.54
2018-03-27T07:55:55.764Z,100224.79
2018-03-27T07:58:26.727Z,100220.06
2018-03-27T08:00:57.401Z,100223.05
2018-03-27T08:03:28.296Z,100224.59
2018-03-27T08:05:59.022Z,100227.22
2018-03-27T08:08:29.698Z,100227.81
2018-03-27T08:11:00.821Z,100224.95
2018-03-27T08:13:31.722Z,100222.76
2018-03-27T08:16:02.770Z,100223.70
2018-03-27T08:18:33.666Z,100222.68
2018-03-27T08:21:04.849Z,100215.71
2018-03-27T08:23:36.419Z,100223.94
2018-03-27T08:26:07.153Z,100216.20
2018-03-27T08:28:37.725Z,100228.28
2018-03-27T08:31:08.792Z,100221.02
2018-03-27T08:33:39.743Z,100219.05
2018-03-27T08:36:10.723Z,100209.87
2018-03-27T08:38:41.745Z,100213.52
2018-03-27T08:41:12.819Z,100216.83
2018-03-27T08:43:43.656Z,100219.28
2018-03-27T08:46:14.621Z,100216.13
2018-03-27T08:48:45.643Z,100222.92
2018-03-27T08:51:16.780Z,100225.11
2018-03-27T08:53:47.987Z,100229.11
2018-03-27T08:56:18.767Z,100228.55
2018-03-27T08:58:49.758Z,100231.17
2018-03-27T09:01:20.732Z,100231.72
2018-03-27T09:03:51.793Z,100235.93
2018-03-27T09:06:22.790Z,100237.96
2018-03-27T09:08:53.697Z,100245.48
2018-03-27T09:11:24.817Z,100237.21
2018-03-27T09:13:55.699Z,100234.27
2018-03-27T09:16:26.813Z,100226.95
2018-03-27T09:18:57.680Z,100237.16
2018-03-27T09:21:28.731Z,100229.55
2018-03-27T09:23:59.668Z,100235.31
2018-03-27T09:26:30.731Z,100231.44
2018-03-27T09:29:06.803Z,100228.33
2018-03-27T09:31:36.131Z,100233.14
2018-03-27T09:34:05.400Z,100230.78
2018-03-27T09:36:35.105Z,100225.27
2018-03-27T09:39:05.387Z,100225.62
2018-03-27T09:41:36.693Z,100233.34
2018-03-27T09:44:07.751Z,100232.33
2018-03-27T09:46:38.769Z,100226.92
2018-03-27T09:49:09.745Z,100223.70
2018-03-27T09:51:40.640Z,100220.52
2018-03-27T09:54:11.693Z,100226.44
2018-03-27T09:56:42.695Z,100222.06
2018-03-27T09:59:13.606Z,100222.14
2018-03-27T10:01:44.197Z,100218.17
2018-03-27T10:04:14.938Z,100216.61
2018-03-27T10:06:45.657Z,100210.39
2018-03-27T10:09:16.750Z,100214.29
2018-03-27T10:11:47.657Z,100207.86
2018-03-27T10:14:18.338Z,100213.71
2018-03-27T10:16:49.010Z,100205.66
2018-03-27T10:19:19.766Z,100209.23
2018-03-27T10:21:50.651Z,100209.63
2018-03-27T10:24:21.704Z,100205.81
2018-03-27T10:26:52.726Z,100203.61
2018-03-27T10:29:23.764Z,100201.09
2018-03-27T10:31:54.434Z,100203.89
2018-03-27T10:34:25.139Z,100203.58
2018-03-27T10:36:55.824Z,100202.63
2018-03-27T10:39:26.722Z,100198.62
2018-03-27T10:41:57.682Z,100192.56
2018-03-27T10:44:28.749Z,100199.84
2018-03-27T10:46:59.614Z,100199.59
2018-03-27T10:49:30.644Z,100199.30
2018-03-27T10:52:01.654Z,100194.66
2018-03-27T10:54:32.715Z,100190.34
2018-03-27T10:57:03.839Z,100192.47
2018-03-27T10:59:34.767Z,100178.88
2018-03-27T11:02:05.669Z,100199.52
2018-03-27T11:04:37.308Z,100199.23
2018-03-27T11:07:08.020Z,100198.33
2018-03-27T11:09:38.850Z,100199.20
2018-03-27T11:12:09.338Z,100196.56
2018-03-27T11:14:40.059Z,100190.62
2018-03-27T11:17:10.765Z,100196.22
2018-03-27T11:19:41.663Z,100199.25
2018-03-27T11:22:12.628Z,100198.34
2018-03-27T11:24:43.954Z,100199.47
2018-03-27T11:27:14.708Z,100189.55
2018-03-27T11:29:45.820Z,100198.37
2018-03-27T11:32:18.327Z,100188.48
2018-03-27T11:34:48.082Z,100195.39
2018-03-27T11:37:18.071Z,100191.48
2018-03-27T11:39:48.822Z,100196.13
2018-03-27T11:42:19.322Z,100198.48
2018-03-27T11:44:49.856Z,100194.11
2018-03-27T11:47:20.687Z,100197.79
2018-03-27T11:49:51.775Z,100196.80
2018-03-27T11:52:22.631Z,100197.80
2018-03-27T11:54:53.578Z,100196.52
2018-03-27T11:57:24.590Z,100190.48
2018-03-27T11:59:55.658Z,100196.83
2018-03-27T12:02:26.311Z,100191.60
2018-03-27T12:04:57.139Z,100185.17
2018-03-27T12:07:27.806Z,100189.64
2018-03-27T12:09:58.887Z,100183.88
2018-03-27T12:12:29.676Z,100180.16
2018-03-27T12:15:00.727Z,100179.70
2018-03-27T12:17:31.627Z,100175.23
2018-03-27T12:20:02.720Z,100172.60
2018-03-27T12:22:33.706Z,100173.38
2018-03-27T12:25:04.803Z,100176.41
2018-03-27T12:27:35.711Z,100171.82
2018-03-27T12:30:06.840Z,100172.16
2018-03-27T12:32:37.712Z,100166.31
2018-03-27T12:35:08.801Z,100162.67
2018-03-27T12:37:39.714Z,100156.39
2018-03-27T12:40:10.766Z,100157.78
2018-03-27T12:42:41.658Z,100151.07
2018-03-27T12:45:12.306Z,100150.80
2018-03-27T12:47:43.012Z,100147.58
2018-03-27T12:50:13.784Z,100149.13
2018-03-27T12:52:44.852Z,100145.48
2018-03-27T12:55:15.768Z,100143.75
2018-03-27T12:57:46.753Z,100142.59
2018-03-27T13:00:17.726Z,100140.40
2018-03-27T13:02:48.749Z,100140.52
2018-03-27T13:05:19.794Z,100142.69
2018-03-27T13:07:57.816Z,100144.12
2018-03-27T13:10:27.219Z,100138.28
2018-03-27T13:12:56.457Z,100135.20
2018-03-27T13:15:25.873Z,100136.16
2018-03-27T13:17:55.334Z,100131.03
2018-03-27T13:20:26.020Z,100126.58
2018-03-27T13:22:56.459Z,100131.00
2018-03-27T13:25:26.973Z,100128.09
2018-03-27T13:27:57.803Z,100119.72
2018-03-27T13:30:28.777Z,100113.70
2018-03-27T13:32:59.706Z,100123.64
2018-03-27T13:35:32.263Z,100117.40
2018-03-27T13:38:02.191Z,100120.73
2018-03-27T13:40:32.715Z,100121.63
2018-03-27T13:43:03.778Z,100116.58
2018-03-27T13:45:34.725Z,100122.78
2018-03-27T13:48:05.119Z,100110.13
2018-03-27T13:50:36.702Z,100121.86
2018-03-27T13:53:07.786Z,100109.72
2018-03-27T13:55:38.692Z,100120.85
2018-03-27T13:58:09.394Z,100128.96
2018-03-27T14:00:40.024Z,100127.67
2018-03-27T14:03:10.826Z,100126.86
2018-03-27T14:05:41.927Z,100130.98
2018-03-27T14:08:12.761Z,100139.16
2018-03-27T14:10:43.711Z,100133.90
2018-03-27T14:13:14.446Z,100134.42
2018-03-27T14:15:45.047Z,100134.95
2018-03-27T14:18:15.158Z,100132.28
2018-03-27T14:20:45.707Z,100129.16
2018-03-27T14:23:16.772Z,100133.89
2018-03-27T14:25:47.395Z,100130.64
2018-03-27T14:28:18.079Z,100135.48
2018-03-27T14:30:48.763Z,100131.78
2018-03-27T14:33:19.779Z,100138.73
2018-03-27T14:35:50.704Z,100131.41
2018-03-27T14:38:21.768Z,100134.92
2018-03-27T14:40:52.707Z,100131.94
2018-03-27T14:43:23.804Z,100129.25
2018-03-27T14:45:54.672Z,100132.48
2018-03-27T14:48:25.833Z,100127.14
2018-03-27T14:50:56.795Z,100122.64
2018-03-27T14:53:27.749Z,100123.96
2018-03-27T14:55:58.754Z,100124.20
2018-03-27T14:58:29.731Z,100122.39
2018-03-27T15:01:00.806Z,100124.03
2018-03-27T15:03:31.771Z,100124.14
2018-03-27T15:06:02.674Z,100133.65
2018-03-27T15:08:33.839Z,100123.97
2018-03-27T15:11:04.375Z,100124.47
2018-03-27T15:13:35.111Z,100124.58
2018-03-27T15:16:05.768Z,100127.84
2018-03-27T15:18:36.787Z,100131.61
2018-03-27T15:21:07.655Z,100127.75
2018-03-27T15:23:38.392Z,100133.11
2018-03-27T15:26:09.084Z,100129.06
2018-03-27T15:28:39.900Z,100133.23
2018-03-27T15:31:10.947Z,100131.95
2018-03-27T15:33:41.889Z,100132.41
2018-03-27T15:36:12.665Z,100128.28
2018-03-27T15:38:43.747Z,100124.23
2018-03-27T15:41:14.708Z,100121.64
2018-03-27T15:43:46.648Z,100113.78
2018-03-27T15:46:17.313Z,100116.20
2018-03-27T15:48:48.116Z,100119.52
2018-03-27T15:51:18.886Z,100113.70
2018-03-27T15:53:49.838Z,100118.22
2018-03-27T15:56:20.752Z,100115.53
2018-03-27T15:58:51.732Z,100112.70
2018-03-27T16:01:22.786Z,100108.09
2018-03-27T16:03:53.756Z,100101.49
2018-03-27T16:06:24.872Z,100104.63
2018-03-27T16:08:56.807Z,100103.27
2018-03-27T16:11:27.350Z,100098.70
2018-03-27T16:13:58.182Z,100104.24
2018-03-27T16:16:28.849Z,100102.44
2018-03-27T16:18:59.740Z,100104.53
2018-03-27T16:21:30.675Z,100099.30
2018-03-27T16:24:01.776Z,100103.84
2018-03-27T16:26:32.768Z,100099.45
2018-03-27T16:29:03.807Z,100101.48
2018-03-27T16:31:35.247Z,100101.19
2018-03-27T16:34:05.640Z,100095.32
2018-03-27T16:36:36.642Z,100094.77
2018-03-27T16:39:07.751Z,100100.69
2018-03-27T16:41:38.728Z,100099.02
2018-03-27T16:44:09.907Z,100099.92
2018-03-27T16:46:40.718Z,100101.55
2018-03-27T16:49:12.630Z,100096.72
2018-03-27T16:51:43.293Z,100095.45
2018-03-27T16:54:13.904Z,100103.13
2018-03-27T16:56:45.177Z,100099.45
2018-03-27T16:59:15.057Z,100111.20
2018-03-27T17:01:45.908Z,100113.28
2018-03-27T17:04:16.779Z,100110.23
2018-03-27T17:06:47.833Z,100108.87
2018-03-27T17:09:18.912Z,100110.94
2018-03-27T17:11:49.340Z,100116.56
2018-03-27T17:14:20.035Z,100120.20
2018-03-27T17:16:51.364Z,100118.53
2018-03-27T17:19:22.485Z,100118.50
2018-03-27T17:21:53.157Z,100119.34
2018-03-27T17:24:23.164Z,100119.88
2018-03-27T17:26:53.786Z,100119.45
2018-03-27T17:29:24.909Z,100125.63
2018-03-27T17:31:55.636Z,100127.09
2018-03-27T17:37:11.599Z,100129.33
2018-03-27T17:39:41.053Z,100123.97
2018-03-27T17:42:10.347Z,100136.04
2018-03-27T17:44:39.618Z,100123.61
2018-03-27T17:47:09.034Z,100127.80
2018-03-27T17:49:38.367Z,100130.38
2018-03-27T17:52:07.742Z,100130.55
2018-03-27T17:54:37.372Z,100131.98
2018-03-27T17:57:06.861Z,100135.58
2018-03-27T17:59:36.115Z,100137.24
2018-03-27T18:02:05.450Z,100137.69
2018-03-27T18:04:35.262Z,100135.13
2018-03-27T18:07:05.669Z,100137.73
2018-03-27T18:09:37.272Z,100138.15
2018-03-27T18:12:07.947Z,100144.38
2018-03-27T18:14:38.750Z,100149.97
2018-03-27T18:17:09.846Z,100143.98
2018-03-27T18:19:40.507Z,100135.50
2018-03-27T18:22:11.621Z,100135.66
2018-03-27T18:24:42.667Z,100138.23
2018-03-27T18:27:13.760Z,100141.79
2018-03-27T18:29:45.260Z,100148.66
2018-03-27T18:32:15.906Z,100151.22
2018-03-27T18:34:46.848Z,100147.61
2018-03-27T18:37:17.948Z,100148.80
2018-03-27T18:39:48.763Z,100139.78
2018-03-27T18:42:21.517Z,100144.67
2018-03-27T18:44:50.932Z,100145.00
2018-03-27T18:47:21.535Z,100142.31
2018-03-27T18:49:52.218Z,100149.16
2018-03-27T18:52:22.914Z,100151.16
2018-03-27T18:54:53.720Z,100147.23
2018-03-27T18:57:24.535Z,100151.98
2018-03-27T18:59:55.552Z,100153.61
2018-03-27T19:02:26.652Z,100142.35
2018-03-27T19:04:57.690Z,100147.50
2018-03-27T19:07:28.920Z,100148.55
2018-03-27T19:09:59.925Z,100154.14
2018-03-27T19:12:30.878Z,100156.86
2018-03-27T19:15:01.754Z,100162.59
2018-03-27T19:17:32.784Z,100162.27
2018-03-27T19:20:03.760Z,100165.47
2018-03-27T19:22:34.796Z,100160.45
2018-03-27T19:25:05.402Z,100166.25
2018-03-27T19:27:36.203Z,100158.94
2018-03-27T19:30:06.866Z,100159.20
2018-03-27T19:32:37.378Z,100155.77
2018-03-27T19:35:08.096Z,100160.16
2018-03-27T19:37:38.873Z,100165.46
2018-03-27T19:40:09.384Z,100162.11
2018-03-27T19:42:40.117Z,100159.49
2018-03-27T19:45:10.837Z,100156.60
2018-03-27T19:47:41.858Z,100155.27
2018-03-27T19:50:12.817Z,100149.44
2018-03-27T19:52:43.407Z,100150.17
2018-03-27T19:55:14.114Z,100147.70
2018-03-27T19:57:44.952Z,100143.33
2018-03-27T20:00:15.366Z,100140.38
2018-03-27T20:02:46.168Z,100135.28
2018-03-27T20:05:16.768Z,100134.55
2018-03-27T20:07:47.472Z,100123.40
2018-03-27T20:10:18.234Z,100119.55
2018-03-27T20:12:48.861Z,100114.11
2018-03-27T20:15:24.814Z,100112.52
2018-03-27T20:17:54.143Z,100115.88
2018-03-27T20:20:23.427Z,100113.39
2018-03-27T20:22:52.717Z,100114.85
2018-03-27T20:25:22.501Z,100113.05
2018-03-27T20:27:52.155Z,100110.12
2018-03-27T20:30:22.823Z,100112.11
2018-03-27T20:32:53.860Z,100104.38
2018-03-27T20:35:24.464Z,100110.95
2018-03-27T20:37:55.147Z,100101.89
2018-03-27T20:40:25.932Z,100103.08
2018-03-27T20:42:56.686Z,100105.39
2018-03-27T20:45:27.502Z,100094.68
2018-03-27T20:47:58.552Z,100090.75
2018-03-27T20:50:29.622Z,100097.39
2018-03-27T20:53:00.715Z,100087.34
2018-03-27T20:55:31.911Z,100093.46
2018-03-27T20:58:02.811Z,100095.69
2018-03-27T21:00:33.753Z,100090.97
2018-03-27T21:03:04.381Z,100092.77
2018-03-27T21:05:36.242Z,100087.31
2018-03-27T21:08:06.872Z,100090.81
2018-03-27T21:10:37.999Z,100094.41
2018-03-27T21:13:08.730Z,100090.23
2018-03-27T21:15:39.799Z,100090.23
2018-03-27T21:18:10.722Z,100086.41
2018-03-27T21:20:41.847Z,100083.05
2018-03-27T21:23:12.728Z,100082.91
2018-03-27T21:25:43.799Z,100092.09
2018-03-27T21:28:14.645Z,100087.44
2018-03-27T21:30:45.768Z,100090.88
2018-03-27T21:33:16.658Z,100084.39
2018-03-27T21:35:47.369Z,100079.68
2018-03-27T21:38:17.472Z,100082.08
2018-03-27T21:40:48.204Z,100081.39
2018-03-27T21:43:18.798Z,100084.60
2018-03-27T21:45:49.806Z,100085.44
2018-03-27T21:48:20.752Z,100081.87
2018-03-27T21:50:51.140Z,100080.11
2018-03-27T21:53:21.840Z,100083.69
2018-03-27T21:55:52.716Z,100082.82
2018-03-27T21:58:23.779Z,100090.97
2018-03-27T22:00:54.868Z,100084.76
2018-03-27T22:03:25.151Z,100089.61
2018-03-27T22:05:56.750Z,100085.36
2018-03-27T22:08:27.590Z,100082.14
2018-03-27T22:10:58.594Z,100069.56
2018-03-27T22:13:29.457Z,100074.16
2018-03-27T22:16:00.408Z,100069.94
2018-03-27T22:18:31.348Z,100067.33
2018-03-27T22:21:02.371Z,100072.78
2018-03-27T22:23:33.375Z,100071.06
2018-03-27T22:26:04.450Z,100070.55
2018-03-27T22:28:35.341Z,100067.20
2018-03-27T22:31:06.883Z,100066.14
2018-03-27T22:33:37.655Z,100064.05
2018-03-27T22:36:08.726Z,100057.63
2018-03-27T22:38:39.745Z,100059.84
2018-03-27T22:41:10.904Z,100059.25
2018-03-27T22:43:41.704Z,100058.58
2018-03-27T22:46:12.741Z,100054.80
2018-03-27T22:48:49.358Z,100048.83
2018-03-27T22:51:18.923Z,100044.23
2018-03-27T22:53:48.208Z,100042.52
2018-03-27T22:56:17.466Z,100044.45
2018-03-27T22:58:48.174Z,100042.14
2018-03-27T23:01:18.438Z,100038.57
2018-03-27T23:03:49.255Z,100038.67
2018-03-27T23:06:19.833Z,100039.41
2018-03-27T23:08:50.764Z,100031.23
2018-03-27T23:11:21.802Z,100031.54
2018-03-27T23:13:52.488Z,100030.09
2018-03-27T23:16:22.980Z,100020.70
2018-03-27T23:18:53.806Z,100031.73
2018-03-27T23:21:24.770Z,100020.98
2018-03-27T23:23:55.821Z,100021.78
2018-03-27T23:26:26.416Z,100021.77
2018-03-27T23:28:57.143Z,100016.70
2018-03-27T23:31:27.793Z,100015.36
2018-03-27T23:33:58.492Z,100010.79
2018-03-27T23:36:29.146Z,100006.73
2018-03-27T23:38:59.855Z,100011.89
2018-03-27T23:41:30.401Z,100019.30
2018-03-27T23:44:01.090Z,100006.67
2018-03-27T23:46:31.008Z,100015.45
2018-03-27T23:49:02.032Z,100014.14
2018-03-27T23:51:32.701Z,100011.64
2018-03-27T23:54:03.752Z,100009.01
2018-03-27T23:56:34.687Z,100007.34
2018-03-27T23:59:05.795Z,100002.05
